Time;durP1;ratioP1;P1;durP2;ratioP2;P2;SDS_P1;SDS_P2;PMS_P1;PMS_P2;Temp;Humidity;BMP_temperature;BMP_pressure;BME280_temperature;BME280_humidity;BME280_pressure;Samples;Min_cycle;Max_cycle;Signal;HPM_P1;HPM_P2
2023/02/21 02:16:08;;;;;;;26.80;15.10;;;9.60;99.90;;;;;;5115383;28;20430;-71
2023/02/21 02:18:52;;;;;;;22.90;12.37;;;9.60;99.90;;;;;;5114727;28;20453;-73
2023/02/21 02:21:57;;;;;;;20.90;12.17;;;9.60;99.90;;;;;;5115106;28;20447;-73
2023/02/21 02:24:41;;;;;;;24.10;12.10;;;9.60;99.90;;;;;;5115101;28;20394;-72
2023/02/21 02:27:39;;;;;;;18.40;12.30;;;9.60;99.90;;;;;;5114736;28;20523;-71
2023/02/21 02:30:41;;;;;;;26.50;14.60;;;9.60;99.90;;;;;;5114590;28;20418;-70
2023/02/21 02:33:25;;;;;;;23.57;13.67;;;9.60;99.90;;;;;;5113757;28;20439;-72
2023/02/21 02:35:58;;;;;;;25.60;14.57;;;9.60;99.90;;;;;;5147069;27;20545;-71
2023/02/21 02:38:29;;;;;;;28.73;13.90;;;9.60;99.90;;;;;;5134838;27;20453;-72
2023/02/21 02:41:04;;;;;;;23.57;13.63;;;9.70;99.90;;;;;;5135344;27;20971;-71
2023/02/21 02:43:35;;;;;;;28.77;16.57;;;9.70;99.90;;;;;;5135138;27;20437;-72
2023/02/21 02:46:23;;;;;;;21.37;13.00;;;9.70;99.90;;;;;;5133818;27;20538;-72
2023/02/21 02:49:03;;;;;;;24.77;14.63;;;9.70;99.90;;;;;;5134867;27;20422;-71
2023/02/21 02:51:32;;;;;;;20.70;12.87;;;9.70;99.90;;;;;;5135104;27;20923;-71
2023/02/21 02:53:58;;;;;;;21.87;13.97;;;9.70;99.90;;;;;;5134977;27;20498;-71
2023/02/21 02:56:25;;;;;;;28.40;15.60;;;9.80;99.90;;;;;;5135008;27;20437;-71
2023/02/21 02:59:09;;;;;;;20.67;12.07;;;9.80;99.90;;;;;;5134452;27;20546;-72
2023/02/21 03:01:56;;;;;;;23.87;13.17;;;9.80;99.90;;;;;;5134890;27;20390;-71
2023/02/21 03:04:24;;;;;;;22.33;13.20;;;9.80;99.90;;;;;;5119932;27;20402;-72
2023/02/21 03:07:11;;;;;;;20.10;12.67;;;9.80;99.90;;;;;;5112725;28;20402;-72
2023/02/21 03:09:42;;;;;;;21.70;13.10;;;9.80;99.90;;;;;;5114054;28;20769;-71
2023/02/21 03:12:33;;;;;;;23.87;13.60;;;9.90;99.90;;;;;;5114145;28;20434;-72
2023/02/21 03:15:01;;;;;;;26.90;14.13;;;9.90;99.90;;;;;;5114080;27;20501;-72
2023/02/21 03:17:30;;;;;;;20.70;13.07;;;9.90;99.90;;;;;;5112486;28;20856;-71
2023/02/21 03:19:58;;;;;;;23.97;15.00;;;9.90;99.90;;;;;;5113517;28;20434;-72
2023/02/21 03:22:29;;;;;;;35.50;16.47;;;9.90;99.90;;;;;;5114030;28;20399;-73
2023/02/21 03:24:56;;;;;;;27.93;13.13;;;9.90;99.90;;;;;;5113939;28;20497;-71
2023/02/21 03:27:22;;;;;;;22.40;14.20;;;9.90;99.90;;;;;;5113536;28;20410;-71
2023/02/21 03:29:49;;;;;;;29.57;14.30;;;10.00;99.90;;;;;;5113677;28;20431;-70
2023/02/21 03:34:49;;;;;;;27.20;13.20;;;10.00;99.90;;;;;;5134077;27;20425;-72
2023/02/21 03:37:37;;;;;;;27.80;13.17;;;10.00;99.90;;;;;;5133777;27;20953;-72
2023/02/21 03:40:06;;;;;;;26.53;12.00;;;10.00;99.90;;;;;;5135345;27;20552;-72
2023/02/21 03:42:32;;;;;;;22.90;12.17;;;10.00;99.90;;;;;;5144764;27;20418;-72
2023/02/21 03:44:57;;;;;;;25.80;11.57;;;10.00;99.90;;;;;;5133891;27;20470;-72
2023/02/21 03:47:23;;;;;;;27.83;14.70;;;10.00;99.90;;;;;;5133657;27;20175;-73
2023/02/21 03:49:49;;;;;;;25.97;12.60;;;10.00;99.90;;;;;;5133849;27;20284;-72
2023/02/21 03:52:15;;;;;;;24.90;13.60;;;10.00;99.90;;;;;;5133948;27;20401;-72
2023/02/21 03:54:40;;;;;;;18.67;12.53;;;10.00;99.90;;;;;;5133804;27;20168;-72
2023/02/21 03:57:06;;;;;;;21.20;11.83;;;10.00;99.90;;;;;;5133471;27;20553;-71
2023/02/21 03:59:32;;;;;;;26.33;13.90;;;9.80;99.90;;;;;;5133511;27;20188;-72
2023/02/21 04:01:57;;;;;;;20.07;12.50;;;9.80;99.90;;;;;;5133686;27;20597;-72
2023/02/21 04:04:23;;;;;;;25.17;13.20;;;9.70;99.90;;;;;;5114760;27;20543;-71
2023/02/21 04:06:48;;;;;;;28.67;13.70;;;9.70;99.90;;;;;;5112940;28;20191;-72
2023/02/21 04:09:14;;;;;;;29.97;15.17;;;9.60;99.90;;;;;;5112851;28;20216;-72
2023/02/21 04:11:43;;;;;;;21.87;12.93;;;9.50;99.90;;;;;;5112984;28;20165;-72
2023/02/21 04:14:09;;;;;;;24.00;12.63;;;9.50;99.90;;;;;;5112778;28;20201;-71
2023/02/21 04:16:35;;;;;;;27.00;13.07;;;9.50;99.90;;;;;;5112870;28;20421;-71
2023/02/21 04:19:00;;;;;;;22.40;12.83;;;9.50;99.90;;;;;;5112478;28;20207;-72
2023/02/21 04:21:26;;;;;;;22.50;12.93;;;9.60;99.90;;;;;;5112792;28;20165;-71
2023/02/21 04:23:51;;;;;;;30.60;15.40;;;9.40;99.90;;;;;;5112634;28;20164;-71
2023/02/21 04:26:17;;;;;;;20.40;12.50;;;9.50;99.90;;;;;;5112731;28;20195;-71
2023/02/21 04:28:42;;;;;;;23.67;12.27;;;9.30;99.90;;;;;;5112265;28;20238;-70
2023/02/21 04:31:08;;;;;;;19.90;11.30;;;9.30;99.90;;;;;;5112687;28;20576;-70
2023/02/21 04:33:34;;;;;;;21.83;12.67;;;9.30;99.90;;;;;;5127905;27;20183;-71
2023/02/21 04:35:59;;;;;;;20.83;11.37;;;9.30;99.90;;;;;;5133119;27;20195;-70
2023/02/21 04:38:25;;;;;;;24.03;13.43;;;9.30;99.90;;;;;;5132750;27;20227;-70
2023/02/21 04:40:50;;;;;;;19.90;13.20;;;9.30;99.90;;;;;;5133005;27;20668;-70
2023/02/21 04:43:16;;;;;;;20.10;12.87;;;9.10;99.90;;;;;;5132935;27;20657;-70
2023/02/21 04:45:42;;;;;;;20.13;12.17;;;9.30;99.90;;;;;;5133020;27;20160;-71
2023/02/21 04:48:07;;;;;;;24.20;12.27;;;9.30;99.90;;;;;;5131352;27;20224;-71
2023/02/21 04:50:33;;;;;;;23.00;12.03;;;9.20;99.90;;;;;;5136845;27;20629;-72
2023/02/21 04:52:58;;;;;;;18.73;12.03;;;9.20;99.90;;;;;;5141673;27;20549;-71
2023/02/21 04:55:24;;;;;;;20.93;12.63;;;9.20;99.90;;;;;;5133071;27;20164;-71
2023/02/21 04:57:49;;;;;;;26.43;12.83;;;9.20;99.90;;;;;;5132346;27;20184;-71
2023/02/21 05:00:15;;;;;;;22.10;12.53;;;9.00;99.90;;;;;;5131106;28;20202;-71
2023/02/21 05:02:44;;;;;;;24.70;12.57;;;9.00;99.90;;;;;;5124981;28;20172;-71
2023/02/21 05:05:10;;;;;;;19.07;10.50;;;9.10;99.90;;;;;;5123659;27;20172;-71
2023/02/21 05:07:36;;;;;;;19.90;12.70;;;9.20;99.90;;;;;;5132557;27;20510;-71
2023/02/21 05:10:04;;;;;;;24.50;11.40;;;9.10;99.90;;;;;;5132800;28;20492;-71
2023/02/21 05:12:30;;;;;;;24.20;13.40;;;9.00;99.90;;;;;;5132579;27;20171;-71
2023/02/21 05:14:56;;;;;;;22.50;11.80;;;9.10;99.90;;;;;;5132734;27;20398;-71
2023/02/21 05:17:21;;;;;;;37.00;17.67;;;9.10;99.90;;;;;;5132271;28;20416;-72
2023/02/21 05:19:47;;;;;;;30.43;16.43;;;9.10;99.90;;;;;;5132605;28;20191;-71
2023/02/21 05:22:13;;;;;;;16.67;11.03;;;9.20;99.90;;;;;;5132759;28;20694;-71
2023/02/21 05:24:41;;;;;;;18.47;11.90;;;9.20;99.90;;;;;;5132711;27;20682;-71
2023/02/21 05:27:10;;;;;;;25.47;13.87;;;9.30;99.90;;;;;;5132265;27;20160;-71
2023/02/21 05:29:36;;;;;;;21.47;10.97;;;9.40;99.90;;;;;;5132576;27;20453;-71
2023/02/21 05:32:01;;;;;;;19.57;12.00;;;9.40;99.90;;;;;;5131109;27;20440;-71
2023/02/21 05:34:27;;;;;;;21.93;10.83;;;9.50;99.90;;;;;;5122713;28;20406;-71
2023/02/21 05:36:52;;;;;;;25.50;10.90;;;9.50;99.90;;;;;;5119947;27;20176;-71
2023/02/21 05:39:18;;;;;;;21.83;12.30;;;9.50;99.90;;;;;;5111700;28;20197;-71
2023/02/21 05:41:48;;;;;;;24.77;12.70;;;9.50;99.90;;;;;;5111776;28;20161;-71
2023/02/21 05:44:13;;;;;;;24.17;12.40;;;9.40;99.90;;;;;;5111923;28;20203;-72
2023/02/21 05:46:39;;;;;;;25.27;13.30;;;9.20;99.90;;;;;;5111879;28;20813;-71
2023/02/21 05:49:04;;;;;;;25.87;13.30;;;9.00;99.90;;;;;;5111484;28;20189;-72
2023/02/21 05:51:38;;;;;;;30.20;13.70;;;9.00;99.90;;;;;;5111869;28;20247;-72
2023/02/21 05:54:06;;;;;;;30.30;14.63;;;8.90;99.90;;;;;;5111781;28;20244;-71
2023/02/21 05:56:39;;;;;;;27.63;13.67;;;8.90;99.90;;;;;;5111779;28;20403;-72
2023/02/21 05:59:05;;;;;;;25.60;13.03;;;8.90;99.90;;;;;;5111349;28;20461;-72
2023/02/21 06:01:30;;;;;;;26.37;12.70;;;8.90;99.90;;;;;;5123722;27;20408;-72
2023/02/21 06:03:56;;;;;;;30.27;13.67;;;8.80;99.90;;;;;;5140092;27;20397;-71
2023/02/21 06:06:21;;;;;;;30.33;17.43;;;8.70;99.90;;;;;;5134499;27;20630;-71
2023/02/21 06:08:48;;;;;;;27.57;18.40;;;8.60;99.90;;;;;;5135483;27;20219;-71
2023/02/21 06:11:20;;;;;;;27.10;17.77;;;8.70;99.90;;;;;;5135915;27;20171;-71
2023/02/21 06:13:48;;;;;;;26.30;13.80;;;8.80;99.90;;;;;;5134685;27;20430;-71
2023/02/21 06:16:14;;;;;;;24.50;13.13;;;8.90;99.90;;;;;;5135853;27;20406;-71
2023/02/21 06:18:39;;;;;;;27.80;12.60;;;8.90;99.90;;;;;;5134771;27;21005;-73
2023/02/21 06:21:05;;;;;;;27.67;14.37;;;9.00;99.90;;;;;;5135586;27;20160;-71
2023/02/21 06:23:30;;;;;;;30.90;14.30;;;8.90;99.90;;;;;;5135709;27;20169;-73
2023/02/21 06:25:56;;;;;;;29.13;12.97;;;9.00;99.90;;;;;;5134200;27;20229;-70
2023/02/21 06:28:28;;;;;;;27.70;14.87;;;9.00;99.90;;;;;;5135229;27;20192;-73
2023/02/21 06:30:54;;;;;;;24.73;13.07;;;9.10;99.90;;;;;;5125678;27;20195;-74
2023/02/21 06:33:19;;;;;;;30.47;15.23;;;9.10;99.90;;;;;;5114979;28;20391;-72
2023/02/21 06:35:45;;;;;;;25.67;12.60;;;9.20;99.90;;;;;;5114769;28;20176;-73
2023/02/21 06:38:10;;;;;;;25.33;12.30;;;9.20;99.90;;;;;;5114371;28;20207;-73
2023/02/21 06:40:35;;;;;;;20.30;12.43;;;9.20;99.90;;;;;;5114742;28;20217;-73
2023/02/21 06:43:01;;;;;;;34.70;15.73;;;9.20;99.90;;;;;;5114704;28;20181;-73
2023/02/21 06:45:26;;;;;;;22.80;12.77;;;9.10;99.90;;;;;;5114784;28;20511;-73
2023/02/21 06:47:52;;;;;;;28.40;15.03;;;9.10;99.90;;;;;;5121651;27;20726;-71
2023/02/21 06:50:18;;;;;;;26.53;12.53;;;8.90;99.90;;;;;;5124126;27;20175;-72
2023/02/21 06:52:43;;;;;;;25.90;12.50;;;9.00;99.90;;;;;;5114800;28;20187;-71
2023/02/21 06:55:09;;;;;;;23.10;12.60;;;9.00;99.90;;;;;;5114459;28;20543;-71
2023/02/21 06:57:34;;;;;;;26.03;12.83;;;9.00;99.90;;;;;;5114158;28;20188;-71
2023/02/21 07:00:00;;;;;;;23.30;13.90;;;8.90;99.90;;;;;;5113095;28;20180;-72
2023/02/21 07:02:25;;;;;;;26.17;13.23;;;9.00;99.90;;;;;;5114372;28;20193;-70
2023/02/21 07:04:51;;;;;;;30.23;13.20;;;9.00;99.90;;;;;;5114134;28;20173;-71
2023/02/21 07:07:16;;;;;;;31.70;14.53;;;9.10;99.90;;;;;;5113968;28;20168;-74
2023/02/21 07:09:42;;;;;;;27.43;12.33;;;9.10;99.90;;;;;;5113052;28;20185;-72
2023/02/21 07:12:07;;;;;;;28.90;13.43;;;9.20;99.90;;;;;;5114185;28;20165;-71
2023/02/21 07:14:33;;;;;;;30.90;12.87;;;9.20;99.90;;;;;;5143678;27;20185;-71
2023/02/21 07:16:59;;;;;;;24.77;11.87;;;9.20;99.90;;;;;;5133187;27;20175;-71
2023/02/21 07:19:24;;;;;;;27.50;13.57;;;9.20;99.90;;;;;;5132928;27;20199;-72
2023/02/21 07:21:50;;;;;;;31.00;14.40;;;9.20;99.90;;;;;;5134524;27;20269;-72
2023/02/21 07:24:15;;;;;;;26.97;14.00;;;9.00;99.90;;;;;;5134323;27;20226;-72
2023/02/21 07:26:41;;;;;;;35.00;16.20;;;9.10;99.90;;;;;;5134354;27;20156;-72
2023/02/21 07:29:06;;;;;;;29.43;13.90;;;9.20;99.90;;;;;;5134341;27;20233;-72
2023/02/21 07:31:32;;;;;;;23.60;12.30;;;9.20;99.90;;;;;;5134358;27;20187;-72
2023/02/21 07:33:58;;;;;;;34.57;13.67;;;9.30;99.90;;;;;;5134178;27;20161;-72
2023/02/21 07:36:23;;;;;;;21.80;13.73;;;9.30;99.90;;;;;;5134183;27;20167;-72
2023/02/21 07:38:49;;;;;;;24.27;12.40;;;9.20;99.90;;;;;;5133645;27;20279;-73
2023/02/21 07:41:15;;;;;;;22.13;11.93;;;9.20;99.90;;;;;;5134139;27;20165;-72
2023/02/21 07:43:41;;;;;;;26.80;12.20;;;9.30;99.90;;;;;;5134127;27;20161;-72
2023/02/21 07:46:11;;;;;;;28.13;11.23;;;9.40;99.90;;;;;;5134003;27;20428;-71
2023/02/21 07:48:36;;;;;;;26.30;12.00;;;9.30;99.90;;;;;;5117817;27;20615;-71
2023/02/21 07:51:02;;;;;;;25.60;12.90;;;9.30;99.90;;;;;;5112105;28;20414;-71
2023/02/21 07:53:27;;;;;;;23.23;11.93;;;9.20;99.90;;;;;;5113302;28;20169;-71
2023/02/21 07:55:53;;;;;;;20.17;10.30;;;9.00;99.90;;;;;;5113407;28;20654;-71
2023/02/21 07:58:19;;;;;;;22.53;10.87;;;9.10;99.90;;;;;;5112637;28;20857;-71
2023/02/21 08:00:44;;;;;;;22.67;12.47;;;9.20;99.90;;;;;;5122651;27;20184;-71
2023/02/21 08:03:13;;;;;;;20.10;11.47;;;9.30;99.90;;;;;;5133664;27;20179;-71
2023/02/21 08:05:39;;;;;;;22.43;13.40;;;9.40;99.90;;;;;;5117824;27;20165;-71
2023/02/21 08:08:09;;;;;;;18.47;10.63;;;9.50;99.90;;;;;;5112725;28;20413;-71
2023/02/21 08:10:35;;;;;;;28.20;15.00;;;9.60;99.90;;;;;;5111723;28;20172;-72
2023/02/21 08:13:01;;;;;;;23.87;13.13;;;9.70;99.90;;;;;;5112843;28;20423;-71
2023/02/21 08:15:26;;;;;;;24.27;12.40;;;9.80;99.90;;;;;;5112935;28;20402;-71
2023/02/21 08:17:52;;;;;;;26.83;12.63;;;9.80;99.90;;;;;;5115656;27;20443;-73
2023/02/21 08:20:18;;;;;;;21.53;11.83;;;9.90;99.90;;;;;;5121466;27;20705;-72
2023/02/21 08:22:44;;;;;;;29.30;14.00;;;10.00;99.90;;;;;;5134112;27;20167;-72
2023/02/21 08:25:10;;;;;;;27.30;13.17;;;10.00;99.90;;;;;;5153982;27;20393;-72
2023/02/21 08:27:40;;;;;;;22.40;12.40;;;10.10;99.90;;;;;;5153739;27;20401;-72
2023/02/21 08:30:08;;;;;;;23.33;13.47;;;10.20;99.90;;;;;;5152414;27;20493;-72
2023/02/21 08:32:34;;;;;;;20.27;11.57;;;10.00;99.90;;;;;;5153936;27;21028;-72
2023/02/21 08:34:59;;;;;;;23.47;12.13;;;10.10;99.90;;;;;;5153906;27;20485;-71
2023/02/21 08:37:31;;;;;;;27.47;12.43;;;10.10;99.90;;;;;;5152290;27;20401;-71
2023/02/21 08:39:57;;;;;;;29.77;13.30;;;10.20;99.90;;;;;;5154031;27;20202;-72
2023/02/21 08:42:24;;;;;;;22.13;12.93;;;10.20;99.90;;;;;;5153933;27;20400;-72
2023/02/21 08:44:49;;;;;;;23.17;12.83;;;10.20;99.90;;;;;;5153846;27;20938;-71
2023/02/21 08:47:15;;;;;;;34.93;15.47;;;10.20;99.90;;;;;;5145275;27;20441;-71
2023/02/21 08:49:47;;;;;;;21.93;12.73;;;10.40;99.90;;;;;;5111172;28;20188;-71
2023/02/21 08:52:15;;;;;;;27.17;11.53;;;10.40;99.90;;;;;;5110982;28;20399;-73
2023/02/21 08:54:41;;;;;;;30.23;12.23;;;10.30;99.90;;;;;;5112419;28;20410;-73
2023/02/21 08:57:07;;;;;;;23.20;11.37;;;10.40;99.90;;;;;;5112145;28;20402;-71
2023/02/21 08:59:33;;;;;;;26.37;13.90;;;10.40;99.90;;;;;;5110851;28;20461;-72
2023/02/21 09:02:00;;;;;;;22.83;13.47;;;10.30;99.90;;;;;;5112312;28;20162;-71
2023/02/21 09:04:26;;;;;;;27.73;13.77;;;10.10;99.90;;;;;;5110344;28;20441;-72
2023/02/21 09:06:52;;;;;;;36.03;14.57;;;10.00;99.90;;;;;;5111943;28;20479;-71
2023/02/21 09:09:19;;;;;;;24.37;13.17;;;10.00;99.90;;;;;;5112063;28;20441;-71
2023/02/21 09:11:47;;;;;;;25.33;11.40;;;10.10;99.90;;;;;;5110934;28;20417;-73
2023/02/21 09:14:13;;;;;;;20.50;11.13;;;10.20;99.90;;;;;;5112035;28;20418;-70
2023/02/21 09:16:38;;;;;;;27.50;13.93;;;10.40;99.90;;;;;;5111463;28;20464;-72
2023/02/21 09:19:05;;;;;;;27.20;13.63;;;10.50;99.90;;;;;;5111699;28;20972;-70
2023/02/21 09:21:32;;;;;;;22.00;13.00;;;10.60;99.90;;;;;;5112116;28;20156;-69
2023/02/21 09:24:01;;;;;;;26.83;13.47;;;10.70;99.90;;;;;;5112011;28;20403;-70
2023/02/21 09:26:30;;;;;;;28.53;13.17;;;10.80;99.90;;;;;;5112021;28;20386;-70
2023/02/21 09:28:56;;;;;;;31.07;12.83;;;11.00;99.90;;;;;;5111883;28;20842;-69
2023/02/21 09:31:21;;;;;;;22.60;13.10;;;11.10;99.90;;;;;;5114590;27;20616;-71
2023/02/21 09:33:47;;;;;;;21.93;13.47;;;11.20;99.90;;;;;;5142539;27;20164;-71
2023/02/21 09:36:13;;;;;;;25.13;12.43;;;11.30;99.90;;;;;;5132519;28;20635;-71
2023/02/21 09:38:40;;;;;;;23.17;12.00;;;11.50;99.90;;;;;;5132045;28;20678;-71
2023/02/21 09:41:09;;;;;;;24.30;14.03;;;11.60;99.90;;;;;;5134441;27;20526;-71
2023/02/21 09:43:38;;;;;;;21.87;12.03;;;11.70;99.90;;;;;;5135084;27;20424;-71
2023/02/21 09:46:09;;;;;;;23.63;12.73;;;11.70;99.90;;;;;;5134543;27;20405;-71
2023/02/21 09:48:35;;;;;;;21.97;12.90;;;11.70;99.90;;;;;;5116492;27;20438;-70
2023/02/21 09:51:07;;;;;;;31.73;13.77;;;11.70;99.90;;;;;;5129539;27;20410;-71
2023/02/21 09:53:38;;;;;;;30.50;14.37;;;11.80;99.90;;;;;;5135905;27;20172;-72
2023/02/21 09:56:24;;;;;;;17.93;10.13;;;11.80;99.90;;;;;;5134653;27;20500;-71
2023/02/21 09:58:49;;;;;;;22.90;11.83;;;11.90;99.90;;;;;;5135287;27;20801;-71
2023/02/21 10:01:49;;;;;;;26.10;12.90;;;11.90;99.90;;;;;;5135785;27;20413;-71
2023/02/21 10:04:49;;;;;;;22.43;12.60;;;11.90;99.90;;;;;;5131970;27;20153;-71
2023/02/21 10:07:24;;;;;;;23.77;11.83;;;12.00;99.90;;;;;;5115041;28;20417;-71
2023/02/21 10:10:05;;;;;;;26.87;14.50;;;12.10;99.90;;;;;;5115190;28;20446;-71
2023/02/21 10:12:40;;;;;;;24.50;13.23;;;12.10;99.90;;;;;;5115137;28;20394;-71
2023/02/21 10:15:23;;;;;;;26.80;13.03;;;12.30;99.90;;;;;;5113935;28;20438;-72
2023/02/21 10:18:01;;;;;;;18.67;12.70;;;12.10;99.90;;;;;;5131857;27;20450;-71
2023/02/21 10:20:53;;;;;;;23.43;12.23;;;11.90;99.90;;;;;;5135510;27;20389;-72
2023/02/21 10:23:41;;;;;;;18.90;10.50;;;11.90;99.90;;;;;;5132019;27;20414;-71
2023/02/21 10:26:10;;;;;;;23.70;13.30;;;12.10;99.90;;;;;;5120610;27;20402;-72
2023/02/21 10:28:37;;;;;;;22.80;11.80;;;12.20;99.90;;;;;;5114700;28;20831;-72
2023/02/21 10:31:07;;;;;;;23.07;10.97;;;11.90;99.90;;;;;;5115009;28;20403;-71
2023/02/21 10:33:36;;;;;;;21.00;12.17;;;11.90;99.90;;;;;;5114901;27;20437;-71
2023/02/21 10:36:01;;;;;;;30.60;13.83;;;11.70;99.90;;;;;;5114798;28;20939;-71
2023/02/21 10:38:27;;;;;;;20.30;9.73;;;11.50;99.90;;;;;;5114231;28;20457;-72
2023/02/21 10:40:56;;;;;;;23.90;12.23;;;11.50;99.90;;;;;;5114749;28;20625;-71
2023/02/21 10:43:55;;;;;;;19.73;10.83;;;11.40;99.90;;;;;;5123872;27;20168;-72
2023/02/21 10:46:23;;;;;;;21.53;10.90;;;11.40;99.90;;;;;;5125038;27;20476;-72
2023/02/21 10:48:52;;;;;;;26.30;11.33;;;11.60;99.90;;;;;;5127990;27;20429;-72
2023/02/21 10:51:30;;;;;;;24.53;11.73;;;11.60;99.90;;;;;;5133491;27;20485;-72
2023/02/21 10:54:21;;;;;;;19.27;10.90;;;11.70;99.90;;;;;;5135032;27;20905;-72
2023/02/21 10:56:52;;;;;;;26.80;12.43;;;11.70;99.90;;;;;;5135076;27;20409;-72
2023/02/21 10:59:31;;;;;;;19.40;10.80;;;11.70;99.90;;;;;;5134709;27;20446;-72
2023/02/21 11:01:57;;;;;;;16.73;10.80;;;11.80;99.90;;;;;;5134924;27;20737;-72
2023/02/21 11:04:27;;;;;;;18.20;11.40;;;11.60;99.90;;;;;;5129751;27;20445;-72
2023/02/21 11:07:04;;;;;;;19.57;10.73;;;11.80;99.90;;;;;;5112977;28;20456;-72
2023/02/21 11:09:37;;;;;;;23.70;11.63;;;11.90;99.90;;;;;;5114420;28;20422;-72
2023/02/21 11:12:29;;;;;;;22.23;11.70;;;12.00;99.90;;;;;;5114136;28;20399;-73
2023/02/21 11:14:57;;;;;;;21.33;11.63;;;12.10;99.90;;;;;;5114941;27;20945;-73
2023/02/21 11:17:28;;;;;;;20.33;10.87;;;12.40;99.90;;;;;;5113535;28;20731;-72
2023/02/21 11:19:57;;;;;;;15.77;10.40;;;12.60;99.90;;;;;;5113908;28;20920;-72
2023/02/21 11:22:24;;;;;;;16.37;11.20;;;12.90;99.90;;;;;;5113828;28;20541;-72
2023/02/21 11:25:10;;;;;;;18.23;10.80;;;13.10;99.90;;;;;;5113997;28;20761;-72
2023/02/21 11:27:37;;;;;;;18.17;10.60;;;13.30;99.90;;;;;;5113430;28;20403;-72
2023/02/21 11:30:20;;;;;;;19.67;10.77;;;13.50;99.90;;;;;;5113978;28;20411;-72
2023/02/21 11:32:53;;;;;;;18.00;10.40;;;13.80;99.90;;;;;;5113623;28;20964;-72
2023/02/21 11:35:18;;;;;;;24.93;10.97;;;14.10;99.90;;;;;;5113717;28;20394;-72
2023/02/21 11:37:54;;;;;;;20.90;11.03;;;14.30;99.90;;;;;;5113054;28;20469;-72
2023/02/21 11:40:25;;;;;;;16.33;10.10;;;14.50;99.90;;;;;;5113819;28;20165;-72
2023/02/21 11:43:06;;;;;;;20.70;9.70;;;14.70;99.90;;;;;;5113585;28;20402;-72
2023/02/21 11:45:33;;;;;;;21.43;10.80;;;14.80;99.90;;;;;;5114766;27;20474;-71
2023/02/21 11:48:03;;;;;;;21.43;12.77;;;14.80;99.90;;;;;;5113020;28;20407;-72
2023/02/21 11:50:38;;;;;;;20.67;11.20;;;14.80;99.90;;;;;;5132850;27;20408;-72
2023/02/21 11:53:22;;;;;;;17.70;9.40;;;14.80;99.90;;;;;;5138123;27;20450;-72
2023/02/21 11:55:57;;;;;;;19.60;11.60;;;14.70;99.90;;;;;;5132910;27;20406;-73
2023/02/21 11:58:33;;;;;;;17.03;11.03;;;14.90;99.90;;;;;;5133561;27;20449;-72
2023/02/21 12:01:06;;;;;;;15.00;10.13;;;15.00;99.90;;;;;;5133761;27;21013;-73
2023/02/21 12:03:53;;;;;;;16.10;9.67;;;15.20;99.90;;;;;;5133045;27;20390;-72
2023/02/21 12:06:48;;;;;;;18.40;10.30;;;15.40;99.90;;;;;;5113595;28;20398;-72
2023/02/21 12:09:38;;;;;;;18.30;10.17;;;15.80;99.90;;;;;;5106452;28;20434;-72
2023/02/21 12:12:19;;;;;;;17.10;10.03;;;16.10;99.90;;;;;;5112971;28;20401;-71
2023/02/21 12:15:18;;;;;;;16.57;9.73;;;16.10;99.90;;;;;;5127447;27;20429;-71
2023/02/21 12:17:50;;;;;;;12.17;8.00;;;16.20;99.90;;;;;;5125380;27;20817;-75
2023/02/21 12:20:42;;;;;;;13.87;8.63;;;16.50;99.90;;;;;;5112871;28;20418;-72
2023/02/21 12:23:07;;;;;;;17.00;10.07;;;16.80;99.90;;;;;;5113205;28;20768;-72
2023/02/21 12:25:49;;;;;;;17.83;10.60;;;17.10;99.90;;;;;;5115186;27;20399;-72
2023/02/21 12:28:37;;;;;;;17.20;10.60;;;17.50;99.90;;;;;;5133526;27;20826;-72
2023/02/21 12:31:26;;;;;;;16.97;11.00;;;18.10;99.90;;;;;;5133400;27;20919;-72
2023/02/21 12:34:26;;;;;;;20.43;11.70;;;18.70;99.90;;;;;;5132911;27;20405;-72
2023/02/21 12:37:04;;;;;;;17.77;10.10;;;19.50;99.90;;;;;;5132790;27;20437;-72
2023/02/21 12:39:46;;;;;;;21.63;11.90;;;20.20;99.90;;;;;;5133034;27;20450;-72
2023/02/21 12:42:36;;;;;;;19.27;11.30;;;20.10;97.00;;;;;;5131826;27;20497;-72
2023/02/21 12:46:03;;;;;;;20.17;9.97;;;20.20;95.60;;;;;;5117072;27;20490;-72
2023/02/21 12:48:42;;;;;;;15.47;10.00;;;19.80;92.90;;;;;;5083929;28;20527;-72
2023/02/21 12:51:12;;;;;;;16.47;10.70;;;20.40;95.50;;;;;;5112527;28;20459;-72
2023/02/21 12:54:03;;;;;;;15.53;11.00;;;21.10;95.00;;;;;;5112363;28;20398;-73
2023/02/21 12:56:43;;;;;;;14.43;8.30;;;22.50;95.40;;;;;;5144722;27;20928;-72
2023/02/21 12:59:27;;;;;;;17.83;9.80;;;24.30;92.20;;;;;;5111680;28;20446;-73
2023/02/21 13:02:08;;;;;;;17.87;10.90;;;25.60;82.80;;;;;;5124451;27;20437;-73
2023/02/21 13:04:45;;;;;;;16.40;10.90;;;26.20;72.70;;;;;;5143113;27;20414;-73
2023/02/21 13:07:24;;;;;;;12.23;9.03;;;27.40;68.90;;;;;;5132787;28;20428;-73
2023/02/21 13:10:21;;;;;;;15.33;10.70;;;28.20;63.60;;;;;;5132911;27;20417;-73
2023/02/21 13:12:57;;;;;;;17.20;11.87;;;29.10;59.40;;;;;;5121213;27;20502;-70
2023/02/21 13:15:25;;;;;;;12.30;9.93;;;30.60;55.40;;;;;;5113250;28;20454;-72
2023/02/21 13:18:00;;;;;;;15.73;12.27;;;31.80;51.80;;;;;;5116060;28;20450;-72
2023/02/21 13:20:33;;;;;;;19.00;13.00;;;32.10;49.20;;;;;;5116516;28;20433;-72
2023/02/21 13:23:42;;;;;;;17.90;12.90;;;31.40;46.50;;;;;;5116239;28;20459;-73
2023/02/21 13:26:26;;;;;;;14.90;11.57;;;30.10;45.90;;;;;;5116276;28;20398;-73
2023/02/21 13:28:53;;;;;;;14.50;10.47;;;28.70;46.20;;;;;;5117117;27;20419;-73
2023/02/21 13:31:23;;;;;;;15.27;10.33;;;27.40;47.40;;;;;;5136637;27;20480;-72
2023/02/21 13:33:58;;;;;;;12.87;10.30;;;26.80;49.40;;;;;;5136349;27;20409;-74
2023/02/21 13:36:31;;;;;;;16.30;11.20;;;27.20;51.00;;;;;;5127894;27;20417;-73
2023/02/21 13:38:57;;;;;;;14.70;10.20;;;28.30;50.50;;;;;;5115654;27;20519;-72
2023/02/21 13:41:27;;;;;;;17.10;13.13;;;28.40;49.40;;;;;;5115236;28;20881;-72
2023/02/21 13:43:54;;;;;;;13.63;10.93;;;28.90;48.90;;;;;;5116066;28;20193;-73
2023/02/21 13:46:29;;;;;;;12.00;10.53;;;29.80;48.50;;;;;;5115704;28;20854;-73
2023/02/21 13:49:32;;;;;;;17.40;13.00;;;31.40;48.00;;;;;;5115336;28;20430;-73
2023/02/21 13:52:31;;;;;;;15.70;11.03;;;33.10;45.40;;;;;;5115845;28;20413;-73
2023/02/21 13:55:12;;;;;;;15.77;12.17;;;34.40;43.00;;;;;;5115636;28;20407;-73
2023/02/21 13:57:52;;;;;;;16.47;10.83;;;35.10;40.90;;;;;;5115294;28;20403;-71
2023/02/21 14:00:24;;;;;;;10.57;8.77;;;35.80;40.80;;;;;;5114177;28;20931;-71
2023/02/21 14:02:59;;;;;;;12.50;10.00;;;36.70;39.50;;;;;;5114046;28;20498;-71
2023/02/21 14:05:25;;;;;;;12.63;10.27;;;37.10;37.70;;;;;;5115421;28;20406;-71
2023/02/21 14:08:06;;;;;;;12.07;8.30;;;36.80;37.30;;;;;;5127839;27;20435;-72
2023/02/21 14:10:45;;;;;;;11.40;9.70;;;35.90;36.70;;;;;;5137658;27;20929;-71
2023/02/21 14:13:25;;;;;;;13.53;11.50;;;34.60;37.00;;;;;;5130492;27;21018;-71
2023/02/21 14:16:07;;;;;;;11.10;9.93;;;34.00;38.00;;;;;;5130801;27;20429;-72
2023/02/21 14:18:56;;;;;;;15.60;11.93;;;34.10;38.20;;;;;;5131900;27;20461;-71
2023/02/21 14:21:23;;;;;;;17.03;10.83;;;34.20;38.00;;;;;;5123113;27;20407;-71
2023/02/21 14:23:58;;;;;;;11.33;8.67;;;33.90;37.30;;;;;;5118833;27;20423;-71
2023/02/21 14:26:47;;;;;;;13.13;10.10;;;33.50;38.30;;;;;;5111999;28;20447;-71
2023/02/21 14:29:33;;;;;;;15.27;10.60;;;33.40;38.50;;;;;;5120812;27;20520;-71
2023/02/21 14:32:02;;;;;;;15.03;11.57;;;33.40;38.00;;;;;;5132649;27;20992;-71
2023/02/21 14:34:46;;;;;;;17.57;11.03;;;33.10;37.80;;;;;;5132677;27;20428;-71
2023/02/21 14:37:25;;;;;;;18.20;11.53;;;32.50;38.10;;;;;;5130211;27;20509;-71
2023/02/21 14:39:55;;;;;;;14.17;11.67;;;31.90;38.70;;;;;;5132804;27;20418;-71
2023/02/21 14:42:35;;;;;;;13.93;11.13;;;31.50;39.20;;;;;;5131828;27;20410;-71
2023/02/21 14:45:09;;;;;;;15.63;11.43;;;31.10;39.30;;;;;;5135266;27;20398;-71
2023/02/21 14:47:58;;;;;;;14.73;13.00;;;29.70;39.70;;;;;;5135213;27;20428;-71
2023/02/21 14:50:35;;;;;;;19.43;13.13;;;28.70;40.90;;;;;;5131952;27;20774;-71
2023/02/21 14:53:28;;;;;;;18.77;12.50;;;27.40;41.80;;;;;;5114781;28;20387;-71
2023/02/21 14:56:07;;;;;;;19.03;12.50;;;26.00;43.30;;;;;;5125958;27;20402;-71
2023/02/21 14:58:51;;;;;;;20.60;13.13;;;25.00;45.00;;;;;;5133153;27;20994;-70
2023/02/21 15:01:55;;;;;;;36.63;25.63;;;24.90;46.70;;;;;;5135161;27;20441;-71
2023/02/21 15:04:30;;;;;;;21.73;14.70;;;25.00;47.10;;;;;;5133006;27;20401;-70
2023/02/21 15:07:19;;;;;;;17.57;12.10;;;24.70;46.80;;;;;;5122631;27;20765;-70
2023/02/21 15:10:02;;;;;;;20.83;14.23;;;24.00;47.00;;;;;;5114175;28;20522;-70
2023/02/21 15:12:28;;;;;;;17.13;13.10;;;23.00;47.40;;;;;;5112820;28;20402;-70
2023/02/21 15:14:54;;;;;;;27.10;15.20;;;21.90;48.40;;;;;;5114404;28;20395;-70